sensor_id;sensor_type;location;lat;lon;timestamp;temperature;humidity
27707;DHT22;36332;51.384;0.040;2023-02-12T00:01:25;9.60;99.90
27707;DHT22;36332;51.384;0.040;2023-02-12T00:03:57;9.60;99.90
27707;DHT22;36332;51.384;0.040;2023-02-12T00:06:25;9.60;99.90
27707;DHT22;36332;51.384;0.040;2023-02-12T00:08:54;9.60;99.90
27707;DHT22;36332;51.384;0.040;2023-02-12T00:11:28;10.30;99.90
27707;DHT22;36332;51.384;0.040;2023-02-12T00:13:57;9.60;99.90
27707;DHT22;36332;51.384;0.040;2023-02-12T00:16:26;9.60;99.90
27707;DHT22;36332;51.384;0.040;2023-02-12T00:18:56;9.60;99.90
27707;DHT22;36332;51.384;0.040;2023-02-12T00:21:24;9.60;99.90
27707;DHT22;36332;51.384;0.040;2023-02-12T00:23:55;9.60;99.90
27707;DHT22;36332;51.384;0.040;2023-02-12T00:26:23;9.60;99.90
27707;DHT22;36332;51.384;0.040;2023-02-12T00:28:55;9.60;99.90
27707;DHT22;36332;51.384;0.040;2023-02-12T00:31:25;9.60;99.90
27707;DHT22;36332;51.384;0.040;2023-02-12T00:33:56;9.60;99.90
27707;DHT22;36332;51.384;0.040;2023-02-12T00:36:28;9.60;99.90
27707;DHT22;36332;51.384;0.040;2023-02-12T00:38:56;9.60;99.90
27707;DHT22;36332;51.384;0.040;2023-02-12T00:41:24;9.60;99.90
27707;DHT22;36332;51.384;0.040;2023-02-12T00:43:52;9.60;99.90
27707;DHT22;36332;51.384;0.040;2023-02-12T00:46:20;9.60;99.90
27707;DHT22;36332;51.384;0.040;2023-02-12T00:48:48;9.60;99.90
27707;DHT22;36332;51.384;0.040;2023-02-12T00:51:19;9.60;99.90
27707;DHT22;36332;51.384;0.040;2023-02-12T00:53:46;9.60;99.90
27707;DHT22;36332;51.384;0.040;2023-02-12T00:56:14;9.60;99.90
27707;DHT22;36332;51.384;0.040;2023-02-12T00:58:42;9.60;99.90
27707;DHT22;36332;51.384;0.040;2023-02-12T01:01:09;9.60;99.90
27707;DHT22;36332;51.384;0.040;2023-02-12T01:03:37;9.60;99.90
27707;DHT22;36332;51.384;0.040;2023-02-12T01:06:05;9.60;99.90
27707;DHT22;36332;51.384;0.040;2023-02-12T01:08:35;9.50;99.90
27707;DHT22;36332;51.384;0.040;2023-02-12T01:11:04;9.60;99.90
27707;DHT22;36332;51.384;0.040;2023-02-12T01:13:33;9.50;99.90
27707;DHT22;36332;51.384;0.040;2023-02-12T01:16:17;9.50;99.90
27707;DHT22;36332;51.384;0.040;2023-02-12T01:18:46;9.50;99.90
27707;DHT22;36332;51.384;0.040;2023-02-12T01:21:19;9.70;99.90
27707;DHT22;36332;51.384;0.040;2023-02-12T01:23:48;9.50;99.90
27707;DHT22;36332;51.384;0.040;2023-02-12T01:26:17;9.50;99.90
27707;DHT22;36332;51.384;0.040;2023-02-12T01:28:49;9.50;99.90
27707;DHT22;36332;51.384;0.040;2023-02-12T01:31:20;9.70;99.90
27707;DHT22;36332;51.384;0.040;2023-02-12T01:33:51;9.50;99.90
27707;DHT22;36332;51.384;0.040;2023-02-12T01:36:20;9.50;99.90
27707;DHT22;36332;51.384;0.040;2023-02-12T01:38:48;9.50;99.90
27707;DHT22;36332;51.384;0.040;2023-02-12T01:41:29;9.50;99.90
27707;DHT22;36332;51.384;0.040;2023-02-12T01:44:12;9.40;99.90
27707;DHT22;36332;51.384;0.040;2023-02-12T01:46:41;9.50;99.90
27707;DHT22;36332;51.384;0.040;2023-02-12T01:49:23;9.40;99.90
27707;DHT22;36332;51.384;0.040;2023-02-12T01:51:59;9.40;99.90
27707;DHT22;36332;51.384;0.040;2023-02-12T01:54:29;9.40;99.90
27707;DHT22;36332;51.384;0.040;2023-02-12T01:56:59;9.40;99.90
27707;DHT22;36332;51.384;0.040;2023-02-12T01:59:27;10.10;99.90
27707;DHT22;36332;51.384;0.040;2023-02-12T02:01:55;9.40;99.90
27707;DHT22;36332;51.384;0.040;2023-02-12T02:04:27;9.40;99.90
27707;DHT22;36332;51.384;0.040;2023-02-12T02:06:56;9.30;99.90
27707;DHT22;36332;51.384;0.040;2023-02-12T02:09:24;9.30;99.90
27707;DHT22;36332;51.384;0.040;2023-02-12T02:11:54;9.40;99.90
27707;DHT22;36332;51.384;0.040;2023-02-12T02:14:42;9.40;99.90
27707;DHT22;36332;51.384;0.040;2023-02-12T02:17:44;9.40;99.90
27707;DHT22;36332;51.384;0.040;2023-02-12T02:22:57;9.30;99.90
27707;DHT22;36332;51.384;0.040;2023-02-12T02:31:42;9.30;99.90
27707;DHT22;36332;51.384;0.040;2023-02-12T02:37:04;10.20;99.90
27707;DHT22;36332;51.384;0.040;2023-02-12T02:39:36;9.20;99.90
27707;DHT22;36332;51.384;0.040;2023-02-12T02:42:15;9.20;99.90
27707;DHT22;36332;51.384;0.040;2023-02-12T02:44:53;9.10;99.90
27707;DHT22;36332;51.384;0.040;2023-02-12T02:47:28;9.10;99.90
27707;DHT22;36332;51.384;0.040;2023-02-12T02:50:04;9.20;99.90
27707;DHT22;36332;51.384;0.040;2023-02-12T02:52:42;9.20;99.90
27707;DHT22;36332;51.384;0.040;2023-02-12T02:55:15;9.20;99.90
27707;DHT22;36332;51.384;0.040;2023-02-12T02:57:49;9.10;99.90
27707;DHT22;36332;51.384;0.040;2023-02-12T03:00:46;9.20;99.90
27707;DHT22;36332;51.384;0.040;2023-02-12T03:03:29;9.20;99.90
27707;DHT22;36332;51.384;0.040;2023-02-12T03:06:06;9.20;99.90
27707;DHT22;36332;51.384;0.040;2023-02-12T03:08:39;9.20;99.90
27707;DHT22;36332;51.384;0.040;2023-02-12T03:11:26;9.20;99.90
27707;DHT22;36332;51.384;0.040;2023-02-12T03:19:59;9.20;99.90
27707;DHT22;36332;51.384;0.040;2023-02-12T03:22:30;9.20;99.90
27707;DHT22;36332;51.384;0.040;2023-02-12T03:25:05;9.20;99.90
27707;DHT22;36332;51.384;0.040;2023-02-12T03:27:40;9.10;99.90
27707;DHT22;36332;51.384;0.040;2023-02-12T03:30:10;9.10;99.90
27707;DHT22;36332;51.384;0.040;2023-02-12T03:35:31;9.10;99.90
27707;DHT22;36332;51.384;0.040;2023-02-12T03:40:36;9.10;99.90
27707;DHT22;36332;51.384;0.040;2023-02-12T03:49:33;9.10;99.90
27707;DHT22;36332;51.384;0.040;2023-02-12T03:51:43;9.00;99.90
27707;DHT22;36332;51.384;0.040;2023-02-12T03:54:13;9.00;99.90
27707;DHT22;36332;51.384;0.040;2023-02-12T03:56:45;9.00;99.90
27707;DHT22;36332;51.384;0.040;2023-02-12T03:59:15;9.00;99.90
27707;DHT22;36332;51.384;0.040;2023-02-12T04:01:43;9.00;99.90
27707;DHT22;36332;51.384;0.040;2023-02-12T04:04:11;9.00;99.90
27707;DHT22;36332;51.384;0.040;2023-02-12T04:06:39;9.00;99.90
27707;DHT22;36332;51.384;0.040;2023-02-12T04:09:09;9.00;99.90
27707;DHT22;36332;51.384;0.040;2023-02-12T04:11:58;9.00;99.90
27707;DHT22;36332;51.384;0.040;2023-02-12T04:14:43;9.00;99.90
27707;DHT22;36332;51.384;0.040;2023-02-12T04:19:59;9.00;99.90
27707;DHT22;36332;51.384;0.040;2023-02-12T04:24:58;8.90;99.90
27707;DHT22;36332;51.384;0.040;2023-02-12T04:30:32;9.00;99.90
27707;DHT22;36332;51.384;0.040;2023-02-12T04:33:05;8.90;99.90
27707;DHT22;36332;51.384;0.040;2023-02-12T04:35:39;8.90;99.90
27707;DHT22;36332;51.384;0.040;2023-02-12T04:38:14;8.90;99.90
27707;DHT22;36332;51.384;0.040;2023-02-12T04:40:44;8.90;99.90
27707;DHT22;36332;51.384;0.040;2023-02-12T04:43:12;8.90;99.90
27707;DHT22;36332;51.384;0.040;2023-02-12T04:45:40;8.90;99.90
27707;DHT22;36332;51.384;0.040;2023-02-12T04:48:08;8.90;99.90
27707;DHT22;36332;51.384;0.040;2023-02-12T04:50:39;8.90;99.90
27707;DHT22;36332;51.384;0.040;2023-02-12T04:53:08;9.00;99.90
27707;DHT22;36332;51.384;0.040;2023-02-12T04:55:36;8.90;99.90
27707;DHT22;36332;51.384;0.040;2023-02-12T04:58:04;8.90;99.90
27707;DHT22;36332;51.384;0.040;2023-02-12T05:00:32;8.90;99.90
27707;DHT22;36332;51.384;0.040;2023-02-12T05:03:00;8.90;99.90
27707;DHT22;36332;51.384;0.040;2023-02-12T05:05:28;8.90;99.90
27707;DHT22;36332;51.384;0.040;2023-02-12T05:07:55;8.90;99.90
27707;DHT22;36332;51.384;0.040;2023-02-12T05:10:23;8.90;99.90
27707;DHT22;36332;51.384;0.040;2023-02-12T05:12:52;8.90;99.90
27707;DHT22;36332;51.384;0.040;2023-02-12T05:15:20;8.90;99.90
27707;DHT22;36332;51.384;0.040;2023-02-12T05:17:47;8.90;99.90
27707;DHT22;36332;51.384;0.040;2023-02-12T05:20:15;8.80;99.90
27707;DHT22;36332;51.384;0.040;2023-02-12T05:22:43;8.80;99.90
27707;DHT22;36332;51.384;0.040;2023-02-12T05:25:10;8.80;99.90
27707;DHT22;36332;51.384;0.040;2023-02-12T05:27:38;8.80;99.90
27707;DHT22;36332;51.384;0.040;2023-02-12T05:30:06;8.80;99.90
27707;DHT22;36332;51.384;0.040;2023-02-12T05:32:35;8.80;99.90
27707;DHT22;36332;51.384;0.040;2023-02-12T05:35:03;8.80;99.90
27707;DHT22;36332;51.384;0.040;2023-02-12T05:37:34;8.80;99.90
27707;DHT22;36332;51.384;0.040;2023-02-12T05:40:04;8.70;99.90
27707;DHT22;36332;51.384;0.040;2023-02-12T05:42:32;8.70;99.90
27707;DHT22;36332;51.384;0.040;2023-02-12T05:45:00;8.70;99.90
27707;DHT22;36332;51.384;0.040;2023-02-12T05:47:28;8.80;99.90
27707;DHT22;36332;51.384;0.040;2023-02-12T05:49:55;8.80;99.90
27707;DHT22;36332;51.384;0.040;2023-02-12T05:52:23;8.70;99.90
27707;DHT22;36332;51.384;0.040;2023-02-12T05:54:50;8.80;99.90
27707;DHT22;36332;51.384;0.040;2023-02-12T05:57:18;8.80;99.90
27707;DHT22;36332;51.384;0.040;2023-02-12T05:59:45;8.80;99.90
27707;DHT22;36332;51.384;0.040;2023-02-12T06:02:13;8.80;99.90
27707;DHT22;36332;51.384;0.040;2023-02-12T06:04:40;8.80;99.90
27707;DHT22;36332;51.384;0.040;2023-02-12T06:07:08;8.80;99.90
27707;DHT22;36332;51.384;0.040;2023-02-12T06:09:36;8.80;99.90
27707;DHT22;36332;51.384;0.040;2023-02-12T06:12:03;8.80;99.90
27707;DHT22;36332;51.384;0.040;2023-02-12T06:14:31;8.80;99.90
27707;DHT22;36332;51.384;0.040;2023-02-12T06:16:59;8.80;99.90
27707;DHT22;36332;51.384;0.040;2023-02-12T06:19:26;8.80;99.90
27707;DHT22;36332;51.384;0.040;2023-02-12T06:21:54;8.80;99.90
27707;DHT22;36332;51.384;0.040;2023-02-12T06:24:21;8.80;99.90
27707;DHT22;36332;51.384;0.040;2023-02-12T06:26:50;8.80;99.90
27707;DHT22;36332;51.384;0.040;2023-02-12T06:29:19;8.80;99.90
27707;DHT22;36332;51.384;0.040;2023-02-12T06:31:47;8.80;99.90
27707;DHT22;36332;51.384;0.040;2023-02-12T06:34:15;8.80;99.90
27707;DHT22;36332;51.384;0.040;2023-02-12T06:36:46;8.80;99.90
27707;DHT22;36332;51.384;0.040;2023-02-12T06:39:15;8.80;99.90
27707;DHT22;36332;51.384;0.040;2023-02-12T06:41:43;8.80;99.90
27707;DHT22;36332;51.384;0.040;2023-02-12T06:44:12;8.80;99.90
27707;DHT22;36332;51.384;0.040;2023-02-12T06:46:40;8.80;99.90
27707;DHT22;36332;51.384;0.040;2023-02-12T06:49:11;8.80;99.90
27707;DHT22;36332;51.384;0.040;2023-02-12T06:51:40;8.80;99.90
27707;DHT22;36332;51.384;0.040;2023-02-12T06:54:13;8.80;99.90
27707;DHT22;36332;51.384;0.040;2023-02-12T06:56:41;8.90;99.90
27707;DHT22;36332;51.384;0.040;2023-02-12T06:59:12;8.90;99.90
27707;DHT22;36332;51.384;0.040;2023-02-12T07:01:42;8.90;99.90
27707;DHT22;36332;51.384;0.040;2023-02-12T07:04:10;8.80;99.90
27707;DHT22;36332;51.384;0.040;2023-02-12T07:06:38;8.80;99.90
27707;DHT22;36332;51.384;0.040;2023-02-12T07:09:06;8.90;99.90
27707;DHT22;36332;51.384;0.040;2023-02-12T07:11:35;8.80;99.90
27707;DHT22;36332;51.384;0.040;2023-02-12T07:14:05;8.90;99.90
27707;DHT22;36332;51.384;0.040;2023-02-12T07:16:33;8.80;99.90
27707;DHT22;36332;51.384;0.040;2023-02-12T07:19:02;8.90;99.90
27707;DHT22;36332;51.384;0.040;2023-02-12T07:21:29;8.80;99.90
27707;DHT22;36332;51.384;0.040;2023-02-12T07:23:58;8.80;99.90
27707;DHT22;36332;51.384;0.040;2023-02-12T07:26:26;8.80;99.90
27707;DHT22;36332;51.384;0.040;2023-02-12T07:28:55;8.80;99.90
27707;DHT22;36332;51.384;0.040;2023-02-12T07:31:23;8.80;99.90
27707;DHT22;36332;51.384;0.040;2023-02-12T07:33:56;8.80;99.90
27707;DHT22;36332;51.384;0.040;2023-02-12T07:36:25;8.80;99.90
27707;DHT22;36332;51.384;0.040;2023-02-12T07:38:54;8.80;99.90
27707;DHT22;36332;51.384;0.040;2023-02-12T07:41:31;8.80;99.90
27707;DHT22;36332;51.384;0.040;2023-02-12T07:44:09;8.80;99.90
27707;DHT22;36332;51.384;0.040;2023-02-12T07:46:42;8.80;99.90
27707;DHT22;36332;51.384;0.040;2023-02-12T07:49:16;8.80;99.90
27707;DHT22;36332;51.384;0.040;2023-02-12T07:51:44;8.80;99.90
27707;DHT22;36332;51.384;0.040;2023-02-12T07:54:13;8.80;99.90
27707;DHT22;36332;51.384;0.040;2023-02-12T07:56:42;8.80;99.90
27707;DHT22;36332;51.384;0.040;2023-02-12T07:59:16;8.80;99.90
27707;DHT22;36332;51.384;0.040;2023-02-12T08:01:49;8.90;99.90
27707;DHT22;36332;51.384;0.040;2023-02-12T08:04:20;8.90;99.90
27707;DHT22;36332;51.384;0.040;2023-02-12T08:06:50;8.90;99.90
27707;DHT22;36332;51.384;0.040;2023-02-12T08:09:24;8.90;99.90
27707;DHT22;36332;51.384;0.040;2023-02-12T08:11:52;8.90;99.90
27707;DHT22;36332;51.384;0.040;2023-02-12T08:14:20;9.00;99.90
27707;DHT22;36332;51.384;0.040;2023-02-12T08:16:49;9.00;99.90
27707;DHT22;36332;51.384;0.040;2023-02-12T08:19:17;9.00;99.90
27707;DHT22;36332;51.384;0.040;2023-02-12T08:21:51;9.00;99.90
27707;DHT22;36332;51.384;0.040;2023-02-12T08:24:19;9.00;99.90
27707;DHT22;36332;51.384;0.040;2023-02-12T08:26:49;9.00;99.90
27707;DHT22;36332;51.384;0.040;2023-02-12T08:29:19;9.10;99.90
27707;DHT22;36332;51.384;0.040;2023-02-12T08:31:49;9.10;99.90
27707;DHT22;36332;51.384;0.040;2023-02-12T08:34:19;9.10;99.90
27707;DHT22;36332;51.384;0.040;2023-02-12T08:36:48;9.10;99.90
27707;DHT22;36332;51.384;0.040;2023-02-12T08:39:17;9.10;99.90
27707;DHT22;36332;51.384;0.040;2023-02-12T08:41:45;9.20;99.90
27707;DHT22;36332;51.384;0.040;2023-02-12T08:44:14;9.20;99.90
27707;DHT22;36332;51.384;0.040;2023-02-12T08:46:50;9.30;99.90
27707;DHT22;36332;51.384;0.040;2023-02-12T08:49:26;9.20;99.90
27707;DHT22;36332;51.384;0.040;2023-02-12T08:51:55;9.30;99.90
27707;DHT22;36332;51.384;0.040;2023-02-12T08:54:25;9.30;99.90
27707;DHT22;36332;51.384;0.040;2023-02-12T08:56:59;9.40;99.90
27707;DHT22;36332;51.384;0.040;2023-02-12T08:59:27;9.40;99.90
27707;DHT22;36332;51.384;0.040;2023-02-12T09:01:55;9.50;99.90
27707;DHT22;36332;51.384;0.040;2023-02-12T09:04:27;9.50;99.90
27707;DHT22;36332;51.384;0.040;2023-02-12T09:06:55;9.50;99.90
27707;DHT22;36332;51.384;0.040;2023-02-12T09:09:23;9.60;99.90
27707;DHT22;36332;51.384;0.040;2023-02-12T09:11:50;9.60;99.90
27707;DHT22;36332;51.384;0.040;2023-02-12T09:14:19;9.60;99.90
27707;DHT22;36332;51.384;0.040;2023-02-12T09:16:53;9.70;99.90
27707;DHT22;36332;51.384;0.040;2023-02-12T09:19:23;9.70;99.90
27707;DHT22;36332;51.384;0.040;2023-02-12T09:21:53;9.70;99.90
27707;DHT22;36332;51.384;0.040;2023-02-12T09:24:24;9.80;99.90
27707;DHT22;36332;51.384;0.040;2023-02-12T09:26:52;9.80;99.90
27707;DHT22;36332;51.384;0.040;2023-02-12T09:29:19;9.80;99.90
27707;DHT22;36332;51.384;0.040;2023-02-12T09:31:48;9.80;99.90
27707;DHT22;36332;51.384;0.040;2023-02-12T09:34:15;9.80;99.90
27707;DHT22;36332;51.384;0.040;2023-02-12T09:36:43;9.80;99.90
27707;DHT22;36332;51.384;0.040;2023-02-12T09:39:11;9.90;99.90
27707;DHT22;36332;51.384;0.040;2023-02-12T09:47:19;10.00;99.90
27707;DHT22;36332;51.384;0.040;2023-02-12T09:52:25;10.00;99.90
27707;DHT22;36332;51.384;0.040;2023-02-12T09:54:54;10.00;99.90
27707;DHT22;36332;51.384;0.040;2023-02-12T09:57:33;10.00;99.90
27707;DHT22;36332;51.384;0.040;2023-02-12T10:00:09;10.10;99.90
27707;DHT22;36332;51.384;0.040;2023-02-12T10:02:38;10.10;99.90
27707;DHT22;36332;51.384;0.040;2023-02-12T10:05:18;10.10;99.90
27707;DHT22;36332;51.384;0.040;2023-02-12T10:26:38;10.30;99.90
27707;DHT22;36332;51.384;0.040;2023-02-12T10:29:15;10.30;99.90
27707;DHT22;36332;51.384;0.040;2023-02-12T10:31:47;10.30;99.90
27707;DHT22;36332;51.384;0.040;2023-02-12T10:34:20;10.30;99.90
27707;DHT22;36332;51.384;0.040;2023-02-12T10:36:50;10.30;99.90
27707;DHT22;36332;51.384;0.040;2023-02-12T10:39:24;10.20;99.90
27707;DHT22;36332;51.384;0.040;2023-02-12T10:42:17;10.30;99.90
27707;DHT22;36332;51.384;0.040;2023-02-12T10:44:43;10.30;99.90
27707;DHT22;36332;51.384;0.040;2023-02-12T10:47:18;10.20;99.90
27707;DHT22;36332;51.384;0.040;2023-02-12T10:49:55;10.10;99.90
27707;DHT22;36332;51.384;0.040;2023-02-12T10:52:38;10.10;99.90
27707;DHT22;36332;51.384;0.040;2023-02-12T10:57:57;10.00;99.90
27707;DHT22;36332;51.384;0.040;2023-02-12T11:00:31;10.00;99.90
27707;DHT22;36332;51.384;0.040;2023-02-12T11:05:42;10.10;99.90
27707;DHT22;36332;51.384;0.040;2023-02-12T11:08:32;10.10;99.90
27707;DHT22;36332;51.384;0.040;2023-02-12T11:11:27;10.10;99.90
27707;DHT22;36332;51.384;0.040;2023-02-12T11:16:52;10.30;99.90
27707;DHT22;36332;51.384;0.040;2023-02-12T11:19:29;10.30;99.90
27707;DHT22;36332;51.384;0.040;2023-02-12T11:22:06;10.30;99.90
27707;DHT22;36332;51.384;0.040;2023-02-12T11:24:36;10.40;99.90
27707;DHT22;36332;51.384;0.040;2023-02-12T11:29:38;10.50;99.90
27707;DHT22;36332;51.384;0.040;2023-02-12T11:32:08;10.50;99.90
27707;DHT22;36332;51.384;0.040;2023-02-12T11:34:36;10.50;99.90
27707;DHT22;36332;51.384;0.040;2023-02-12T11:37:03;10.50;99.90
27707;DHT22;36332;51.384;0.040;2023-02-12T11:39:39;10.50;99.90
27707;DHT22;36332;51.384;0.040;2023-02-12T11:42:21;10.50;99.90
27707;DHT22;36332;51.384;0.040;2023-02-12T11:44:54;10.50;99.90
27707;DHT22;36332;51.384;0.040;2023-02-12T11:47:27;10.40;99.90
27707;DHT22;36332;51.384;0.040;2023-02-12T11:50:17;10.50;99.90
27707;DHT22;36332;51.384;0.040;2023-02-12T11:52:49;10.50;99.90
27707;DHT22;36332;51.384;0.040;2023-02-12T11:55:21;10.60;99.90
27707;DHT22;36332;51.384;0.040;2023-02-12T11:57:52;10.60;99.90
27707;DHT22;36332;51.384;0.040;2023-02-12T12:00:28;10.60;99.90
27707;DHT22;36332;51.384;0.040;2023-02-12T12:03:16;10.60;99.90
27707;DHT22;36332;51.384;0.040;2023-02-12T12:05:51;10.60;99.90
27707;DHT22;36332;51.384;0.040;2023-02-12T12:08:39;10.60;99.90
27707;DHT22;36332;51.384;0.040;2023-02-12T12:14:04;10.70;99.90
27707;DHT22;36332;51.384;0.040;2023-02-12T12:16:42;10.60;99.90
27707;DHT22;36332;51.384;0.040;2023-02-12T12:20:00;10.60;99.90
27707;DHT22;36332;51.384;0.040;2023-02-12T12:22:52;10.60;99.90
27707;DHT22;36332;51.384;0.040;2023-02-12T12:25:23;10.60;99.90
27707;DHT22;36332;51.384;0.040;2023-02-12T12:27:57;10.60;99.90
27707;DHT22;36332;51.384;0.040;2023-02-12T12:33:51;10.50;99.90
27707;DHT22;36332;51.384;0.040;2023-02-12T12:39:32;10.40;99.90
27707;DHT22;36332;51.384;0.040;2023-02-12T12:50:47;10.40;99.90
27707;DHT22;36332;51.384;0.040;2023-02-12T12:55:53;10.40;99.90
27707;DHT22;36332;51.384;0.040;2023-02-12T12:58:49;10.40;99.90
27707;DHT22;36332;51.384;0.040;2023-02-12T13:01:24;10.40;99.90
27707;DHT22;36332;51.384;0.040;2023-02-12T13:07:18;10.40;99.90
27707;DHT22;36332;51.384;0.040;2023-02-12T13:26:44;10.50;99.90
27707;DHT22;36332;51.384;0.040;2023-02-12T13:29:40;10.50;99.90
27707;DHT22;36332;51.384;0.040;2023-02-12T13:32:34;10.50;99.90
27707;DHT22;36332;51.384;0.040;2023-02-12T13:35:05;10.50;99.90
27707;DHT22;36332;51.384;0.040;2023-02-12T13:37:42;10.50;99.90
27707;DHT22;36332;51.384;0.040;2023-02-12T13:40:20;10.50;99.90
27707;DHT22;36332;51.384;0.040;2023-02-12T13:43:10;10.40;99.90
27707;DHT22;36332;51.384;0.040;2023-02-12T13:45:47;10.40;99.90
27707;DHT22;36332;51.384;0.040;2023-02-12T13:51:07;10.30;99.90
27707;DHT22;36332;51.384;0.040;2023-02-12T13:56:48;10.30;99.90
27707;DHT22;36332;51.384;0.040;2023-02-12T13:59:43;10.30;99.90
27707;DHT22;36332;51.384;0.040;2023-02-12T14:04:43;10.20;99.90
27707;DHT22;36332;51.384;0.040;2023-02-12T14:07:13;10.30;99.90
27707;DHT22;36332;51.384;0.040;2023-02-12T14:15:02;10.30;99.90
27707;DHT22;36332;51.384;0.040;2023-02-12T14:33:49;10.30;99.90
27707;DHT22;36332;51.384;0.040;2023-02-12T14:39:26;10.30;99.90
27707;DHT22;36332;51.384;0.040;2023-02-12T14:44:56;10.30;99.90
27707;DHT22;36332;51.384;0.040;2023-02-12T14:47:48;10.20;99.90
27707;DHT22;36332;51.384;0.040;2023-02-12T14:50:19;10.20;99.90
27707;DHT22;36332;51.384;0.040;2023-02-12T14:52:59;10.20;99.90
27707;DHT22;36332;51.384;0.040;2023-02-12T14:55:31;10.20;99.90
27707;DHT22;36332;51.384;0.040;2023-02-12T14:58:05;10.10;99.90
27707;DHT22;36332;51.384;0.040;2023-02-12T15:00:39;10.10;99.90
27707;DHT22;36332;51.384;0.040;2023-02-12T15:05:57;10.10;99.90
27707;DHT22;36332;51.384;0.040;2023-02-12T15:08:55;10.10;99.90
27707;DHT22;36332;51.384;0.040;2023-02-12T15:11:44;10.00;99.90
27707;DHT22;36332;51.384;0.040;2023-02-12T15:14:27;10.10;99.90
27707;DHT22;36332;51.384;0.040;2023-02-12T15:22:22;10.00;99.90
27707;DHT22;36332;51.384;0.040;2023-02-12T15:24:50;9.90;99.90
27707;DHT22;36332;51.384;0.040;2023-02-12T15:27:18;9.90;99.90
27707;DHT22;36332;51.384;0.040;2023-02-12T15:29:49;9.90;99.90
27707;DHT22;36332;51.384;0.040;2023-02-12T15:32:27;9.80;99.90
27707;DHT22;36332;51.384;0.040;2023-02-12T15:34:56;9.70;99.90
27707;DHT22;36332;51.384;0.040;2023-02-12T15:37:26;9.80;99.90
27707;DHT22;36332;51.384;0.040;2023-02-12T15:39:57;9.70;99.90
27707;DHT22;36332;51.384;0.040;2023-02-12T15:47:37;9.70;99.90
27707;DHT22;36332;51.384;0.040;2023-02-12T15:50:05;9.60;99.90
27707;DHT22;36332;51.384;0.040;2023-02-12T15:52:34;9.60;99.90
27707;DHT22;36332;51.384;0.040;2023-02-12T15:55:05;9.60;99.90
27707;DHT22;36332;51.384;0.040;2023-02-12T15:57:37;9.50;99.90
27707;DHT22;36332;51.384;0.040;2023-02-12T16:00:15;9.60;99.90
27707;DHT22;36332;51.384;0.040;2023-02-12T16:02:51;9.50;99.90
27707;DHT22;36332;51.384;0.040;2023-02-12T16:05:20;9.50;99.90
27707;DHT22;36332;51.384;0.040;2023-02-12T16:07:48;9.50;99.90
27707;DHT22;36332;51.384;0.040;2023-02-12T16:10:18;9.50;99.90
27707;DHT22;36332;51.384;0.040;2023-02-12T16:12:47;9.50;99.90
27707;DHT22;36332;51.384;0.040;2023-02-12T16:15:29;9.50;99.90
27707;DHT22;36332;51.384;0.040;2023-02-12T16:17:58;9.50;99.90
27707;DHT22;36332;51.384;0.040;2023-02-12T16:20:30;9.50;99.90
27707;DHT22;36332;51.384;0.040;2023-02-12T16:22:58;9.50;99.90
27707;DHT22;36332;51.384;0.040;2023-02-12T16:25:32;9.50;99.90
27707;DHT22;36332;51.384;0.040;2023-02-12T16:28:03;9.50;99.90
27707;DHT22;36332;51.384;0.040;2023-02-12T16:30:36;9.50;99.90
27707;DHT22;36332;51.384;0.040;2023-02-12T16:33:34;9.50;99.90
27707;DHT22;36332;51.384;0.040;2023-02-12T16:38:51;9.50;99.90
27707;DHT22;36332;51.384;0.040;2023-02-12T16:46:32;9.40;99.90
27707;DHT22;36332;51.384;0.040;2023-02-12T16:49:01;9.40;99.90
27707;DHT22;36332;51.384;0.040;2023-02-12T16:51:34;9.40;99.90
27707;DHT22;36332;51.384;0.040;2023-02-12T16:54:04;9.50;99.90
27707;DHT22;36332;51.384;0.040;2023-02-12T16:56:50;9.40;99.90
27707;DHT22;36332;51.384;0.040;2023-02-12T16:59:17;9.40;99.90
27707;DHT22;36332;51.384;0.040;2023-02-12T17:02:08;9.40;99.90
27707;DHT22;36332;51.384;0.040;2023-02-12T17:04:36;9.40;99.90
27707;DHT22;36332;51.384;0.040;2023-02-12T17:07:16;9.40;99.90
27707;DHT22;36332;51.384;0.040;2023-02-12T17:09:44;9.40;99.90
27707;DHT22;36332;51.384;0.040;2023-02-12T17:12:12;9.30;99.90
27707;DHT22;36332;51.384;0.040;2023-02-12T17:14:39;9.30;99.90
27707;DHT22;36332;51.384;0.040;2023-02-12T17:17:07;9.30;99.90
27707;DHT22;36332;51.384;0.040;2023-02-12T17:19:34;9.30;99.90
27707;DHT22;36332;51.384;0.040;2023-02-12T17:22:03;9.30;99.90
27707;DHT22;36332;51.384;0.040;2023-02-12T17:24:32;9.20;99.90
27707;DHT22;36332;51.384;0.040;2023-02-12T17:27:02;9.20;99.90
27707;DHT22;36332;51.384;0.040;2023-02-12T17:29:29;9.20;99.90
27707;DHT22;36332;51.384;0.040;2023-02-12T17:31:57;9.20;99.90
27707;DHT22;36332;51.384;0.040;2023-02-12T17:34:25;9.20;99.90
27707;DHT22;36332;51.384;0.040;2023-02-12T17:36:54;9.20;99.90
27707;DHT22;36332;51.384;0.040;2023-02-12T17:39:22;9.20;99.90
27707;DHT22;36332;51.384;0.040;2023-02-12T17:41:50;9.10;99.90
27707;DHT22;36332;51.384;0.040;2023-02-12T17:44:18;9.20;99.90
27707;DHT22;36332;51.384;0.040;2023-02-12T17:46:45;9.20;99.90
27707;DHT22;36332;51.384;0.040;2023-02-12T17:49:12;9.20;99.90
27707;DHT22;36332;51.384;0.040;2023-02-12T17:51:40;9.10;99.90
27707;DHT22;36332;51.384;0.040;2023-02-12T17:54:08;9.40;99.90
27707;DHT22;36332;51.384;0.040;2023-02-12T17:56:36;9.10;99.90
27707;DHT22;36332;51.384;0.040;2023-02-12T17:59:03;9.10;99.90
27707;DHT22;36332;51.384;0.040;2023-02-12T18:01:31;9.10;99.90
27707;DHT22;36332;51.384;0.040;2023-02-12T18:04:00;9.10;99.90
27707;DHT22;36332;51.384;0.040;2023-02-12T18:06:29;9.10;99.90
27707;DHT22;36332;51.384;0.040;2023-02-12T18:08:58;9.00;99.90
27707;DHT22;36332;51.384;0.040;2023-02-12T18:11:28;9.00;99.90
27707;DHT22;36332;51.384;0.040;2023-02-12T18:13:57;9.00;99.90
27707;DHT22;36332;51.384;0.040;2023-02-12T18:16:28;9.00;99.90
27707;DHT22;36332;51.384;0.040;2023-02-12T18:18:56;9.00;99.90
27707;DHT22;36332;51.384;0.040;2023-02-12T18:21:24;9.00;99.90
27707;DHT22;36332;51.384;0.040;2023-02-12T18:23:52;9.00;99.90
27707;DHT22;36332;51.384;0.040;2023-02-12T18:26:20;9.00;99.90
27707;DHT22;36332;51.384;0.040;2023-02-12T18:28:49;9.10;99.90
27707;DHT22;36332;51.384;0.040;2023-02-12T18:31:18;9.00;99.90
27707;DHT22;36332;51.384;0.040;2023-02-12T18:33:46;9.00;99.90
27707;DHT22;36332;51.384;0.040;2023-02-12T18:36:15;9.00;99.90
27707;DHT22;36332;51.384;0.040;2023-02-12T18:38:46;9.00;99.90
27707;DHT22;36332;51.384;0.040;2023-02-12T18:41:16;9.00;99.90
27707;DHT22;36332;51.384;0.040;2023-02-12T18:43:44;9.00;99.90
27707;DHT22;36332;51.384;0.040;2023-02-12T18:46:18;9.00;99.90
27707;DHT22;36332;51.384;0.040;2023-02-12T18:48:46;9.00;99.90
27707;DHT22;36332;51.384;0.040;2023-02-12T18:51:18;9.00;99.90
27707;DHT22;36332;51.384;0.040;2023-02-12T18:53:53;9.00;99.90
27707;DHT22;36332;51.384;0.040;2023-02-12T18:56:21;9.00;99.90
27707;DHT22;36332;51.384;0.040;2023-02-12T18:58:54;9.00;99.90
27707;DHT22;36332;51.384;0.040;2023-02-12T19:01:23;9.00;99.90
27707;DHT22;36332;51.384;0.040;2023-02-12T19:03:56;9.00;99.90
27707;DHT22;36332;51.384;0.040;2023-02-12T19:06:26;9.00;99.90